Time;durP1;ratioP1;P1;durP2;ratioP2;P2;SDS_P1;SDS_P2;PMS_P1;PMS_P2;Temp;Humidity;BMP_temperature;BMP_pressure;BME280_temperature;BME280_humidity;BME280_pressure;Samples;Min_cycle;Max_cycle;Signal;HPM_P1;HPM_P2
2022/11/12 00:00:44;;;;;;;12.13;7.03;;;;;;;;;;5023043;28;20033;-73
2022/11/12 00:03:30;;;;;;;11.82;6.80;;;;;;;;;;5007430;28;20054;-73
2022/11/12 00:06:16;;;;;;;6.70;6.07;;;;;;;;;;5026329;28;20567;-73
2022/11/12 00:09:02;;;;;;;11.23;7.55;;;;;;;;;;5020561;28;20140;-74
2022/11/12 00:11:48;;;;;;;8.10;7.25;;;;;;;;;;5023520;28;20071;-74
2022/11/12 00:14:34;;;;;;;7.63;6.63;;;;;;;;;;5028167;28;20077;-73
2022/11/12 00:17:20;;;;;;;7.40;6.80;;;;;;;;;;5009233;28;20551;-73
2022/11/12 00:20:06;;;;;;;10.18;7.47;;;;;;;;;;5022191;28;20101;-73
2022/11/12 00:22:52;;;;;;;6.10;5.57;;;;;;;;;;5014206;28;20153;-74
2022/11/12 00:25:38;;;;;;;7.05;6.45;;;;;;;;;;5021091;28;20527;-74
2022/11/12 00:28:24;;;;;;;11.93;8.68;;;;;;;;;;5010620;28;20520;-74
2022/11/12 00:31:11;;;;;;;8.20;6.57;;;;;;;;;;4999833;28;20037;-73
2022/11/12 00:33:57;;;;;;;12.80;6.95;;;;;;;;;;5008807;28;20188;-74
2022/11/12 00:36:43;;;;;;;7.15;6.57;;;;;;;;;;5021882;28;20392;-73
2022/11/12 00:39:29;;;;;;;12.40;7.53;;;;;;;;;;5010286;28;20131;-73
2022/11/12 00:42:15;;;;;;;9.05;6.47;;;;;;;;;;5023571;28;20067;-74
2022/11/12 00:45:01;;;;;;;7.90;6.18;;;;;;;;;;5006197;28;20306;-73
2022/11/12 00:47:47;;;;;;;6.45;5.85;;;;;;;;;;5022199;28;20037;-73
2022/11/12 00:50:33;;;;;;;7.18;6.60;;;;;;;;;;5010420;28;20095;-74
2022/11/12 00:53:20;;;;;;;7.20;6.45;;;;;;;;;;5009540;28;20048;-73
2022/11/12 00:56:06;;;;;;;6.97;6.18;;;;;;;;;;5026616;28;20041;-73
2022/11/12 00:58:52;;;;;;;9.35;7.55;;;;;;;;;;5021627;28;20038;-73
2022/11/12 01:01:38;;;;;;;9.25;6.38;;;;;;;;;;5002604;28;20045;-74
2022/11/12 01:04:25;;;;;;;6.78;6.18;;;;;;;;;;5028425;28;20041;-73
2022/11/12 01:07:11;;;;;;;5.35;4.95;;;;;;;;;;5021073;28;20424;-73
2022/11/12 01:09:56;;;;;;;6.15;5.72;;;;;;;;;;5025038;28;20040;-74
2022/11/12 01:12:42;;;;;;;6.05;5.60;;;;;;;;;;5023255;28;20041;-73
2022/11/12 01:15:28;;;;;;;7.57;6.85;;;;;;;;;;5027081;28;20055;-73
2022/11/12 01:18:14;;;;;;;8.57;7.47;;;;;;;;;;5029961;28;20497;-73
2022/11/12 01:21:01;;;;;;;6.55;6.05;;;;;;;;;;5036202;28;20029;-73
2022/11/12 01:23:47;;;;;;;5.38;4.97;;;;;;;;;;5025933;28;20042;-73
2022/11/12 01:26:33;;;;;;;5.70;5.20;;;;;;;;;;5044381;28;20037;-73
2022/11/12 01:29:19;;;;;;;5.18;4.88;;;;;;;;;;5003970;28;20049;-74
2022/11/12 01:32:05;;;;;;;6.00;5.60;;;;;;;;;;5027142;28;20040;-73
2022/11/12 01:34:52;;;;;;;6.88;6.28;;;;;;;;;;5030074;28;20465;-73
2022/11/12 01:37:43;;;;;;;6.28;5.78;;;;;;;;;;4980525;28;20039;-75
2022/11/12 01:40:31;;;;;;;5.55;4.88;;;;;;;;;;4985928;28;20569;-75
2022/11/12 01:43:17;;;;;;;5.82;5.32;;;;;;;;;;4976285;28;20181;-75
2022/11/12 01:46:07;;;;;;;7.13;4.65;;;;;;;;;;4968122;28;20050;-76
2022/11/12 01:48:58;;;;;;;8.30;5.88;;;;;;;;;;4974248;28;20065;-75
2022/11/12 01:51:46;;;;;;;6.60;6.10;;;;;;;;;;4965468;28;20035;-75
2022/11/12 01:54:32;;;;;;;6.88;5.78;;;;;;;;;;4973803;28;20375;-74
2022/11/12 01:57:20;;;;;;;5.72;5.32;;;;;;;;;;4972063;28;20066;-75
2022/11/12 02:00:08;;;;;;;8.52;5.72;;;;;;;;;;4976928;28;20407;-75
2022/11/12 02:02:57;;;;;;;5.97;5.55;;;;;;;;;;4981846;28;20113;-75
2022/11/12 02:05:43;;;;;;;7.22;6.35;;;;;;;;;;4970971;28;20398;-76
2022/11/12 02:08:30;;;;;;;5.57;5.18;;;;;;;;;;4968780;28;20035;-76
2022/11/12 02:11:17;;;;;;;6.35;5.93;;;;;;;;;;4970260;28;20160;-76
2022/11/12 02:14:04;;;;;;;6.75;5.97;;;;;;;;;;4964691;28;20064;-76
2022/11/12 02:16:50;;;;;;;6.68;6.07;;;;;;;;;;4961021;28;20054;-76
2022/11/12 02:19:37;;;;;;;6.85;6.30;;;;;;;;;;4971972;28;20147;-75
2022/11/12 02:22:23;;;;;;;12.23;6.22;;;;;;;;;;4963550;28;20043;-75
2022/11/12 02:25:11;;;;;;;7.32;6.18;;;;;;;;;;4980690;28;20065;-75
2022/11/12 02:27:58;;;;;;;7.18;6.60;;;;;;;;;;4965896;28;20047;-75
2022/11/12 02:30:45;;;;;;;6.60;6.10;;;;;;;;;;4970864;28;20047;-76
2022/11/12 02:33:31;;;;;;;6.20;5.75;;;;;;;;;;4980360;28;20410;-76
2022/11/12 02:36:17;;;;;;;6.53;6.00;;;;;;;;;;4978833;28;20058;-76
2022/11/12 02:39:03;;;;;;;10.68;5.85;;;;;;;;;;4971920;28;20129;-76
2022/11/12 02:41:49;;;;;;;12.30;6.13;;;;;;;;;;4965042;28;20561;-76
2022/11/12 02:44:35;;;;;;;7.55;5.57;;;;;;;;;;4982278;28;20046;-75
2022/11/12 02:47:20;;;;;;;10.32;6.47;;;;;;;;;;4964620;28;20058;-75
2022/11/12 02:50:07;;;;;;;7.15;6.45;;;;;;;;;;4974681;28;20120;-77
2022/11/12 02:52:53;;;;;;;7.63;6.20;;;;;;;;;;4965737;28;20055;-76
2022/11/12 02:55:38;;;;;;;8.90;6.93;;;;;;;;;;4953740;28;20046;-77
2022/11/12 02:58:24;;;;;;;14.40;6.47;;;;;;;;;;4958628;28;20050;-76
2022/11/12 03:01:11;;;;;;;8.95;6.25;;;;;;;;;;4963364;28;20173;-76
2022/11/12 03:03:58;;;;;;;7.57;6.22;;;;;;;;;;4956853;28;20047;-76
2022/11/12 03:06:44;;;;;;;8.35;5.95;;;;;;;;;;4964608;28;20478;-76
2022/11/12 03:09:30;;;;;;;10.27;6.38;;;;;;;;;;4980930;28;20046;-75
2022/11/12 03:12:16;;;;;;;6.47;5.93;;;;;;;;;;4964281;28;20134;-75
2022/11/12 03:15:02;;;;;;;11.90;7.18;;;;;;;;;;4962244;28;20564;-75
2022/11/12 03:17:48;;;;;;;7.43;6.43;;;;;;;;;;4971978;28;20140;-75
2022/11/12 03:20:34;;;;;;;7.20;6.60;;;;;;;;;;4961840;28;20038;-75
2022/11/12 03:23:20;;;;;;;7.63;6.75;;;;;;;;;;4971792;28;20092;-76
2022/11/12 03:26:06;;;;;;;12.43;6.22;;;;;;;;;;4972059;28;20694;-76
2022/11/12 03:28:52;;;;;;;12.02;6.05;;;;;;;;;;4954655;28;20318;-75
2022/11/12 03:31:38;;;;;;;11.27;6.45;;;;;;;;;;4971031;28;20069;-75
2022/11/12 03:34:24;;;;;;;6.55;6.00;;;;;;;;;;4955021;28;20414;-76
2022/11/12 03:37:10;;;;;;;6.80;6.03;;;;;;;;;;4970103;28;20042;-76
2022/11/12 03:39:55;;;;;;;6.13;5.63;;;;;;;;;;4967102;28;20423;-76
2022/11/12 03:42:45;;;;;;;4.97;4.47;;;;;;;;;;4968177;28;20038;-76
2022/11/12 03:45:31;;;;;;;9.15;4.57;;;;;;;;;;4975469;28;20050;-76
2022/11/12 03:48:17;;;;;;;4.55;4.15;;;;;;;;;;4963803;28;20617;-76
2022/11/12 03:51:03;;;;;;;5.10;4.68;;;;;;;;;;4970797;28;20041;-76
2022/11/12 03:53:49;;;;;;;4.97;4.68;;;;;;;;;;4965355;28;20364;-76
2022/11/12 03:56:34;;;;;;;6.22;5.82;;;;;;;;;;4967652;28;20049;-76
2022/11/12 03:59:20;;;;;;;4.10;3.90;;;;;;;;;;4957905;28;20054;-75
2022/11/12 04:02:07;;;;;;;7.60;5.05;;;;;;;;;;4966374;28;20047;-76
2022/11/12 04:11:07;;;;;;;4.90;4.60;;;;;;;;;;4968984;28;20125;-75
2022/11/12 04:13:53;;;;;;;6.38;5.40;;;;;;;;;;4968959;28;20399;-75
2022/11/12 04:22:49;;;;;;;5.20;4.38;;;;;;;;;;4957179;28;20050;-76
2022/11/12 04:30:14;;;;;;;5.30;4.82;;;;;;;;;;4966065;28;20045;-75
2022/11/12 04:31:45;;;;;;;4.70;4.40;;;;;;;;;;4958862;28;20081;-75
2022/11/12 04:34:33;;;;;;;6.38;4.80;;;;;;;;;;4967324;28;20524;-75
2022/11/12 04:37:20;;;;;;;5.75;4.40;;;;;;;;;;4964799;28;20053;-75
2022/11/12 04:44:58;;;;;;;7.45;4.95;;;;;;;;;;4978248;28;20177;-75
2022/11/12 04:46:21;;;;;;;5.78;5.28;;;;;;;;;;4965919;28;20080;-75
2022/11/12 04:49:07;;;;;;;14.05;5.75;;;;;;;;;;4955390;28;20051;-75
2022/11/12 04:52:05;;;;;;;9.13;5.43;;;;;;;;;;4971893;28;20039;-76
2022/11/12 04:54:51;;;;;;;13.20;5.50;;;;;;;;;;4972262;28;20035;-75
2022/11/12 04:57:37;;;;;;;5.47;5.07;;;;;;;;;;4977120;28;20066;-75
2022/11/12 05:00:23;;;;;;;5.47;4.97;;;;;;;;;;4965779;28;20419;-75
2022/11/12 05:03:09;;;;;;;9.63;5.68;;;;;;;;;;4959482;28;20424;-75
2022/11/12 05:06:02;;;;;;;10.18;5.55;;;;;;;;;;4965570;28;20518;-75
2022/11/12 05:08:48;;;;;;;5.63;5.05;;;;;;;;;;4967257;28;20081;-75
2022/11/12 05:11:34;;;;;;;6.03;5.30;;;;;;;;;;4970489;28;20043;-76
2022/11/12 05:14:20;;;;;;;7.22;5.13;;;;;;;;;;4963206;28;20178;-75
2022/11/12 05:17:06;;;;;;;5.63;5.22;;;;;;;;;;4977656;28;20038;-75
2022/11/12 05:19:52;;;;;;;9.70;6.68;;;;;;;;;;4957826;28;20055;-75
2022/11/12 05:22:38;;;;;;;6.18;5.03;;;;;;;;;;4967519;28;20099;-75
2022/11/12 05:25:44;;;;;;;5.18;4.78;;;;;;;;;;4964632;28;20646;-75
2022/11/12 05:28:30;;;;;;;4.70;4.45;;;;;;;;;;4968738;28;20074;-75
2022/11/12 05:31:16;;;;;;;5.65;4.78;;;;;;;;;;4965746;28;20046;-75
2022/11/12 05:34:02;;;;;;;3.63;3.42;;;;;;;;;;4965288;28;20054;-75
2022/11/12 05:36:48;;;;;;;4.45;4.07;;;;;;;;;;4982369;28;20054;-75
2022/11/12 05:39:34;;;;;;;7.53;5.30;;;;;;;;;;4968245;28;20053;-73
2022/11/12 05:42:20;;;;;;;8.38;5.40;;;;;;;;;;4959284;28;20051;-75
2022/11/12 05:45:10;;;;;;;5.45;5.00;;;;;;;;;;4961675;28;20051;-75
2022/11/12 05:47:56;;;;;;;7.20;6.45;;;;;;;;;;4965872;28;20119;-75
2022/11/12 05:50:42;;;;;;;7.70;5.70;;;;;;;;;;4958501;28;20065;-75
2022/11/12 05:53:48;;;;;;;5.05;4.60;;;;;;;;;;4969938;28;20180;-75
2022/11/12 05:56:34;;;;;;;6.28;5.68;;;;;;;;;;4965160;28;20035;-75
2022/11/12 05:59:21;;;;;;;5.30;4.90;;;;;;;;;;4968668;28;20438;-75
2022/11/12 06:02:06;;;;;;;5.70;5.20;;;;;;;;;;4965090;28;20539;-75
2022/11/12 06:04:53;;;;;;;6.68;4.45;;;;;;;;;;4970375;28;20050;-76
2022/11/12 06:07:39;;;;;;;8.85;5.38;;;;;;;;;;4963075;28;20554;-76
2022/11/12 06:10:25;;;;;;;4.88;4.57;;;;;;;;;;4972622;28;20038;-75
2022/11/12 06:13:11;;;;;;;7.00;5.88;;;;;;;;;;4962987;28;20057;-75
2022/11/12 06:15:57;;;;;;;6.03;5.43;;;;;;;;;;4959489;28;20057;-75
2022/11/12 06:18:43;;;;;;;4.85;4.47;;;;;;;;;;4961067;28;20102;-75
2022/11/12 06:21:29;;;;;;;9.55;6.03;;;;;;;;;;4963516;28;20497;-76
2022/11/12 06:24:15;;;;;;;7.25;5.15;;;;;;;;;;4954606;28;20051;-76
2022/11/12 06:27:00;;;;;;;5.28;4.90;;;;;;;;;;4970220;28;20578;-76
2022/11/12 06:29:46;;;;;;;6.30;5.68;;;;;;;;;;4963628;28;20031;-75
2022/11/12 06:32:32;;;;;;;5.13;4.75;;;;;;;;;;4969962;28;20045;-75
2022/11/12 06:35:18;;;;;;;5.47;5.10;;;;;;;;;;4967088;28;20042;-75
2022/11/12 06:38:04;;;;;;;5.45;5.15;;;;;;;;;;4979903;28;20069;-76
2022/11/12 06:40:50;;;;;;;7.28;4.30;;;;;;;;;;4971546;28;20065;-75
2022/11/12 06:43:37;;;;;;;7.57;5.13;;;;;;;;;;4976436;28;20042;-76
2022/11/12 06:46:23;;;;;;;9.80;5.35;;;;;;;;;;4973491;28;20045;-76
2022/11/12 06:49:09;;;;;;;8.80;5.60;;;;;;;;;;4972332;28;21348;-75
2022/11/12 06:51:55;;;;;;;7.35;6.65;;;;;;;;;;4968812;28;20125;-76
2022/11/12 06:54:41;;;;;;;7.30;6.03;;;;;;;;;;4978235;28;20057;-76
2022/11/12 06:57:27;;;;;;;6.20;5.68;;;;;;;;;;4972738;28;20415;-76
2022/11/12 07:00:13;;;;;;;6.40;5.90;;;;;;;;;;4965798;28;20047;-75
2022/11/12 07:02:59;;;;;;;6.30;5.72;;;;;;;;;;4972538;28;20049;-74
2022/11/12 07:05:44;;;;;;;8.13;5.63;;;;;;;;;;4960470;28;20420;-74
2022/11/12 07:08:30;;;;;;;6.68;6.13;;;;;;;;;;4974249;28;20042;-75
2022/11/12 07:11:17;;;;;;;8.15;6.40;;;;;;;;;;4964400;28;20549;-75
2022/11/12 07:14:06;;;;;;;6.57;5.45;;;;;;;;;;4977852;28;20091;-75
2022/11/12 07:16:52;;;;;;;9.68;8.70;;;;;;;;;;4964491;28;20158;-75
2022/11/12 07:19:38;;;;;;;6.40;5.93;;;;;;;;;;4971916;28;20034;-75
2022/11/12 07:22:24;;;;;;;7.03;6.32;;;;;;;;;;4973166;28;20050;-75
2022/11/12 07:25:10;;;;;;;9.68;6.65;;;;;;;;;;4972629;28;20105;-75
2022/11/12 07:27:56;;;;;;;9.23;6.32;;;;;;;;;;4977688;28;20514;-75
2022/11/12 07:30:42;;;;;;;7.47;6.82;;;;;;;;;;4981333;28;20038;-75
2022/11/12 07:33:28;;;;;;;7.78;6.18;;;;;;;;;;4965635;28;20098;-75
2022/11/12 07:36:15;;;;;;;7.15;6.45;;;;;;;;;;4991373;23;20085;-74
2022/11/12 07:39:00;;;;;;;7.13;6.53;;;;;;;;;;4973779;28;20122;-76
2022/11/12 07:41:46;;;;;;;6.28;5.88;;;;;;;;;;4956658;28;20417;-75
2022/11/12 07:44:32;;;;;;;7.43;6.82;;;;;;;;;;4945993;28;20141;-73
2022/11/12 07:47:18;;;;;;;8.77;6.68;;;;;;;;;;4948016;28;20070;-74
2022/11/12 07:50:05;;;;;;;10.65;6.65;;;;;;;;;;4941453;28;20040;-73
2022/11/12 07:52:51;;;;;;;8.20;7.50;;;;;;;;;;4954164;28;20130;-74
2022/11/12 07:55:37;;;;;;;7.63;7.03;;;;;;;;;;4937462;28;20039;-74
2022/11/12 07:58:23;;;;;;;7.65;7.05;;;;;;;;;;4945841;28;20050;-75
2022/11/12 08:01:23;;;;;;;6.10;5.70;;;;;;;;;;4938908;28;20308;-74
2022/11/12 08:04:10;;;;;;;7.00;6.50;;;;;;;;;;4947581;28;20101;-75
2022/11/12 08:06:56;;;;;;;7.70;6.95;;;;;;;;;;4935178;28;20050;-73
2022/11/12 08:09:42;;;;;;;18.17;7.78;;;;;;;;;;4937839;29;20150;-73
2022/11/12 08:12:28;;;;;;;7.60;6.90;;;;;;;;;;4934495;28;20047;-74
2022/11/12 08:15:15;;;;;;;6.63;6.03;;;;;;;;;;4938958;28;20384;-73
2022/11/12 08:18:01;;;;;;;6.90;6.40;;;;;;;;;;4940988;29;20050;-74
2022/11/12 08:20:46;;;;;;;7.63;7.03;;;;;;;;;;4940426;28;20054;-74
2022/11/12 08:23:33;;;;;;;6.93;6.43;;;;;;;;;;4936741;29;21532;-74
2022/11/12 08:26:19;;;;;;;7.80;7.22;;;;;;;;;;4942195;28;20093;-73
2022/11/12 08:29:05;;;;;;;7.03;6.53;;;;;;;;;;4937670;29;20247;-74
2022/11/12 08:31:53;;;;;;;12.80;7.78;;;;;;;;;;4942683;29;20044;-74
2022/11/12 08:34:40;;;;;;;8.20;7.50;;;;;;;;;;4943383;28;20054;-73
2022/11/12 08:37:26;;;;;;;8.43;7.15;;;;;;;;;;4952802;28;20371;-73
2022/11/12 08:40:12;;;;;;;8.52;7.72;;;;;;;;;;4932735;29;20052;-74
2022/11/12 08:43:02;;;;;;;9.43;8.40;;;;;;;;;;4944353;29;20039;-74
2022/11/12 08:45:49;;;;;;;8.43;7.63;;;;;;;;;;4936845;29;20051;-74
2022/11/12 08:48:35;;;;;;;8.13;7.05;;;;;;;;;;4946405;28;20065;-74
2022/11/12 08:51:21;;;;;;;6.72;6.20;;;;;;;;;;4947002;28;20051;-74
2022/11/12 08:54:06;;;;;;;11.05;9.93;;;;;;;;;;4948283;29;20043;-75
2022/11/12 08:56:53;;;;;;;9.27;8.35;;;;;;;;;;4946695;29;20054;-74
2022/11/12 08:59:38;;;;;;;8.77;7.75;;;;;;;;;;4946734;28;20042;-74
2022/11/12 09:02:24;;;;;;;8.45;7.68;;;;;;;;;;4950525;29;20118;-74
2022/11/12 09:05:10;;;;;;;8.32;7.60;;;;;;;;;;4949559;29;20392;-75
2022/11/12 09:08:00;;;;;;;8.43;7.65;;;;;;;;;;4932133;29;20094;-75
2022/11/12 09:10:46;;;;;;;17.45;13.43;;;;;;;;;;4948928;29;20062;-75
2022/11/12 09:13:32;;;;;;;9.93;8.98;;;;;;;;;;4949049;29;20055;-74
2022/11/12 09:16:20;;;;;;;8.95;8.15;;;;;;;;;;4947730;29;20430;-75
2022/11/12 09:19:05;;;;;;;7.50;6.90;;;;;;;;;;4945136;29;20055;-74
2022/11/12 09:21:51;;;;;;;17.38;15.10;;;;;;;;;;4934665;29;20146;-74
2022/11/12 09:24:37;;;;;;;9.05;7.65;;;;;;;;;;4944373;29;20047;-74
2022/11/12 09:27:26;;;;;;;8.35;7.65;;;;;;;;;;4949216;28;20684;-74
2022/11/12 09:30:12;;;;;;;22.15;18.50;;;;;;;;;;4945077;28;20138;-74
2022/11/12 09:32:58;;;;;;;25.83;23.15;;;;;;;;;;4949079;29;20031;-75
2022/11/12 09:35:44;;;;;;;11.40;10.30;;;;;;;;;;4936858;29;20672;-74
2022/11/12 09:38:31;;;;;;;12.52;11.38;;;;;;;;;;4943302;29;20043;-74
2022/11/12 09:41:19;;;;;;;7.75;7.15;;;;;;;;;;4947472;29;20062;-74
2022/11/12 09:44:19;;;;;;;7.85;7.25;;;;;;;;;;4970976;29;20047;-74
2022/11/12 09:47:23;;;;;;;7.65;7.05;;;;;;;;;;4968629;28;20103;-74
2022/11/12 09:50:18;;;;;;;7.60;6.95;;;;;;;;;;4966664;29;20045;-75
2022/11/12 09:53:06;;;;;;;11.77;10.48;;;;;;;;;;4961299;29;20075;-74
2022/11/12 09:55:53;;;;;;;9.90;8.85;;;;;;;;;;4972075;28;20063;-74
2022/11/12 09:58:39;;;;;;;13.00;9.73;;;;;;;;;;4968834;28;20043;-75
2022/11/12 10:01:42;;;;;;;8.90;8.15;;;;;;;;;;4958673;28;20049;-74
2022/11/12 10:04:42;;;;;;;8.82;7.80;;;;;;;;;;4957321;28;20050;-75
2022/11/12 10:07:31;;;;;;;8.18;7.47;;;;;;;;;;4959820;28;20487;-75
2022/11/12 10:10:29;;;;;;;8.13;7.40;;;;;;;;;;4950766;29;20101;-75
2022/11/12 10:13:28;;;;;;;9.70;8.75;;;;;;;;;;4939491;28;20047;-76
2022/11/12 10:16:43;;;;;;;9.60;8.77;;;;;;;;;;4945323;28;20507;-73
2022/11/12 10:19:40;;;;;;;7.65;7.05;;;;;;;;;;4947339;28;20062;-73
2022/11/12 10:22:26;;;;;;;9.95;9.00;;;;;;;;;;4942843;29;20440;-74
2022/11/12 10:25:14;;;;;;;7.93;7.30;;;;;;;;;;4940667;29;20051;-74
2022/11/12 10:28:02;;;;;;;6.97;6.47;;;;;;;;;;4927436;28;20083;-73
2022/11/12 10:30:47;;;;;;;11.73;10.57;;;;;;;;;;4937392;28;20714;-73
2022/11/12 10:33:33;;;;;;;9.18;8.38;;;;;;;;;;4942330;28;20043;-74
2022/11/12 10:36:22;;;;;;;9.60;8.80;;;;;;;;;;4937800;28;20082;-75
2022/11/12 10:39:08;;;;;;;8.85;8.05;;;;;;;;;;4939762;28;20043;-74
2022/11/12 10:42:05;;;;;;;9.07;8.30;;;;;;;;;;4943341;28;20043;-75
2022/11/12 10:44:51;;;;;;;10.10;9.20;;;;;;;;;;4946746;29;20035;-74
2022/11/12 10:47:41;;;;;;;7.90;7.20;;;;;;;;;;4949221;28;20039;-74
2022/11/12 10:50:45;;;;;;;8.05;7.35;;;;;;;;;;4946188;28;20171;-74
2022/11/12 10:53:31;;;;;;;8.10;7.30;;;;;;;;;;4949081;29;20043;-75
2022/11/12 10:56:29;;;;;;;7.32;6.63;;;;;;;;;;4946711;29;20050;-75
2022/11/12 10:59:22;;;;;;;7.70;7.00;;;;;;;;;;4946386;28;20047;-74
2022/11/12 11:02:17;;;;;;;7.35;6.75;;;;;;;;;;4947857;29;20121;-75
2022/11/12 11:05:23;;;;;;;7.05;6.53;;;;;;;;;;4948584;29;20499;-74
2022/11/12 11:08:09;;;;;;;6.88;6.25;;;;;;;;;;4949371;28;20050;-75
2022/11/12 11:11:09;;;;;;;7.63;6.82;;;;;;;;;;4946505;29;20074;-74
2022/11/12 11:14:15;;;;;;;8.30;7.60;;;;;;;;;;4947254;29;20561;-75
2022/11/12 11:17:07;;;;;;;8.50;7.70;;;;;;;;;;4948143;29;20043;-75
2022/11/12 11:19:53;;;;;;;8.38;7.57;;;;;;;;;;4948317;28;20036;-74
2022/11/12 11:22:41;;;;;;;7.95;7.35;;;;;;;;;;4947105;28;20039;-74
2022/11/12 11:25:28;;;;;;;7.47;6.97;;;;;;;;;;4966652;28;20059;-75
2022/11/12 11:28:26;;;;;;;8.73;8.10;;;;;;;;;;4944755;28;20162;-75
2022/11/12 11:31:12;;;;;;;8.10;7.40;;;;;;;;;;4965315;28;20518;-75
2022/11/12 11:34:28;;;;;;;9.07;8.32;;;;;;;;;;4951818;29;20407;-75
2022/11/12 11:37:17;;;;;;;8.85;8.15;;;;;;;;;;4942404;29;20062;-75
2022/11/12 11:40:26;;;;;;;8.75;8.05;;;;;;;;;;4950951;29;20468;-75
2022/11/12 11:43:14;;;;;;;8.52;7.78;;;;;;;;;;4948427;28;20527;-74
2022/11/12 11:46:25;;;;;;;10.05;9.05;;;;;;;;;;4949627;29;20431;-75
2022/11/12 11:49:19;;;;;;;7.95;7.15;;;;;;;;;;4951398;28;20047;-75
2022/11/12 11:52:05;;;;;;;8.45;7.63;;;;;;;;;;4951203;29;20515;-75
2022/11/12 11:55:06;;;;;;;9.40;8.63;;;;;;;;;;4952260;28;20447;-75
2022/11/12 11:57:52;;;;;;;8.53;7.83;;;;;;;;;;4948691;28;20039;-75
2022/11/12 12:00:38;;;;;;;9.82;9.00;;;;;;;;;;4941385;28;20039;-75
2022/11/12 12:03:29;;;;;;;8.68;8.05;;;;;;;;;;4934820;29;20531;-75
2022/11/12 12:06:31;;;;;;;7.07;6.47;;;;;;;;;;4941975;29;20043;-74
2022/11/12 12:09:36;;;;;;;8.90;8.10;;;;;;;;;;4944118;29;20491;-74
2022/11/12 12:12:37;;;;;;;8.48;7.78;;;;;;;;;;4928568;28;20047;-75
2022/11/12 12:15:26;;;;;;;8.60;7.93;;;;;;;;;;4939831;28;20098;-75
2022/11/12 12:18:39;;;;;;;8.82;8.13;;;;;;;;;;4937559;28;20043;-75
2022/11/12 12:21:26;;;;;;;8.02;7.32;;;;;;;;;;4938753;28;20067;-76
2022/11/12 12:24:24;;;;;;;7.45;6.90;;;;;;;;;;4948653;28;20043;-75
2022/11/12 12:27:18;;;;;;;8.90;8.20;;;;;;;;;;4937893;28;20687;-75
2022/11/12 12:30:06;;;;;;;11.10;10.27;;;;;;;;;;4932086;29;20051;-75
2022/11/12 12:33:06;;;;;;;11.55;10.52;;;;;;;;;;4950048;29;20043;-75
2022/11/12 12:35:53;;;;;;;10.25;9.43;;;;;;;;;;4940154;28;20067;-75
2022/11/12 12:38:43;;;;;;;12.38;11.25;;;;;;;;;;4952482;28;20039;-74
2022/11/12 12:41:32;;;;;;;13.27;12.07;;;;;;;;;;4956758;28;20051;-75
2022/11/12 12:44:18;;;;;;;12.60;11.38;;;;;;;;;;4950546;29;20078;-74
2022/11/12 12:47:04;;;;;;;12.25;11.18;;;;;;;;;;4938339;29;20138;-75
2022/11/12 12:49:51;;;;;;;10.40;9.52;;;;;;;;;;4953072;29;20066;-75
2022/11/12 12:52:56;;;;;;;10.70;9.88;;;;;;;;;;4951452;29;20051;-74
2022/11/12 12:55:42;;;;;;;9.00;8.30;;;;;;;;;;4947016;28;20046;-76
2022/11/12 12:58:28;;;;;;;10.82;9.95;;;;;;;;;;4951053;28;20040;-75
2022/11/12 13:01:23;;;;;;;10.95;9.95;;;;;;;;;;4929882;29;20056;-75
2022/11/12 13:04:10;;;;;;;10.52;9.68;;;;;;;;;;4941531;29;20130;-75
2022/11/12 13:06:56;;;;;;;10.80;9.93;;;;;;;;;;4950426;29;20039;-75
2022/11/12 13:09:42;;;;;;;8.70;8.05;;;;;;;;;;4949475;29;20419;-75
2022/11/12 13:12:57;;;;;;;10.73;9.88;;;;;;;;;;4934859;29;20063;-75
2022/11/12 13:15:43;;;;;;;9.55;8.90;;;;;;;;;;4894322;28;20043;-75
2022/11/12 13:18:39;;;;;;;8.63;7.97;;;;;;;;;;4949329;28;20042;-74
2022/11/12 13:21:25;;;;;;;10.15;9.38;;;;;;;;;;4946021;29;20529;-74
2022/11/12 13:24:13;;;;;;;9.23;8.50;;;;;;;;;;4948656;28;20032;-74
2022/11/12 13:27:00;;;;;;;11.38;10.50;;;;;;;;;;4948139;29;20027;-75
2022/11/12 13:29:47;;;;;;;11.60;10.70;;;;;;;;;;4949634;28;20091;-75
2022/11/12 13:32:37;;;;;;;10.82;9.90;;;;;;;;;;4927621;29;20059;-76
2022/11/12 13:38:49;;;;;;;9.55;8.82;;;;;;;;;;4987227;28;20567;-85
2022/11/12 13:44:40;;;;;;;11.20;10.23;;;;;;;;;;4968764;28;20054;-85
2022/11/12 13:47:28;;;;;;;11.93;10.82;;;;;;;;;;4972491;28;20528;-84
2022/11/12 13:50:18;;;;;;;11.45;10.45;;;;;;;;;;4975974;28;20043;-85
2022/11/12 13:53:08;;;;;;;10.98;10.02;;;;;;;;;;4959374;28;20046;-85
2022/11/12 13:55:57;;;;;;;11.32;10.38;;;;;;;;;;4973561;28;20042;-86
2022/11/12 13:58:43;;;;;;;10.63;9.63;;;;;;;;;;4979045;28;20046;-84
2022/11/12 14:01:33;;;;;;;11.05;10.05;;;;;;;;;;4973114;28;20134;-84
2022/11/12 14:04:20;;;;;;;11.88;10.80;;;;;;;;;;4981731;28;20166;-84
2022/11/12 14:07:17;;;;;;;10.57;9.60;;;;;;;;;;4969710;28;20272;-85
2022/11/12 14:10:25;;;;;;;9.68;8.85;;;;;;;;;;4972254;28;20050;-84
2022/11/12 14:13:16;;;;;;;10.63;9.77;;;;;;;;;;4973561;28;20062;-84
2022/11/12 14:16:23;;;;;;;9.93;8.93;;;;;;;;;;4991457;28;20530;-84
2022/11/12 14:19:25;;;;;;;11.15;9.98;;;;;;;;;;4980227;28;20059;-86
2022/11/12 14:22:18;;;;;;;10.13;9.13;;;;;;;;;;4974561;28;20456;-85
2022/11/12 14:25:17;;;;;;;10.05;9.18;;;;;;;;;;4974678;28;20047;-84
2022/11/12 14:28:04;;;;;;;11.13;10.13;;;;;;;;;;4974744;28;20043;-84
2022/11/12 14:31:01;;;;;;;9.98;8.95;;;;;;;;;;4969403;28;20229;-85
2022/11/12 14:33:47;;;;;;;9.85;8.95;;;;;;;;;;4968639;28;20042;-84
2022/11/12 14:36:34;;;;;;;10.15;9.15;;;;;;;;;;4966150;28;20042;-84
2022/11/12 14:39:20;;;;;;;11.23;10.15;;;;;;;;;;4970053;28;20058;-83
2022/11/12 14:42:13;;;;;;;10.95;9.98;;;;;;;;;;4973554;28;20124;-84
2022/11/12 14:44:59;;;;;;;11.30;10.27;;;;;;;;;;4968422;28;20162;-83
2022/11/12 14:47:47;;;;;;;10.52;9.63;;;;;;;;;;4967292;28;20533;-85
2022/11/12 14:50:32;;;;;;;10.60;9.60;;;;;;;;;;4962589;28;20173;-86
2022/11/12 14:53:32;;;;;;;11.75;10.65;;;;;;;;;;4965314;28;20038;-90
2022/11/12 14:56:39;;;;;;;11.07;10.00;;;;;;;;;;4973926;28;20058;-84
2022/11/12 14:59:29;;;;;;;12.32;11.10;;;;;;;;;;4974436;28;20057;-84
2022/11/12 15:02:27;;;;;;;16.17;14.57;;;;;;;;;;4968892;28;20589;-85
2022/11/12 15:05:38;;;;;;;12.52;11.23;;;;;;;;;;4967629;28;20133;-84
2022/11/12 15:08:31;;;;;;;11.75;10.65;;;;;;;;;;4975504;28;20039;-85
2022/11/12 15:11:24;;;;;;;13.18;11.80;;;;;;;;;;4962803;28;20501;-84
2022/11/12 15:14:12;;;;;;;15.02;12.85;;;;;;;;;;4973438;28;20059;-85
2022/11/12 15:16:59;;;;;;;12.65;11.35;;;;;;;;;;4968452;28;20070;-85
2022/11/12 15:19:45;;;;;;;13.98;12.52;;;;;;;;;;4978302;28;20129;-84
2022/11/12 15:22:32;;;;;;;13.88;12.45;;;;;;;;;;4977878;28;20531;-85
2022/11/12 15:25:23;;;;;;;15.13;12.88;;;;;;;;;;4969015;28;20531;-85
2022/11/12 15:28:13;;;;;;;15.82;14.07;;;;;;;;;;4976481;28;20042;-85
2022/11/12 15:30:59;;;;;;;18.15;14.98;;;;;;;;;;4967751;28;20062;-85
2022/11/12 15:33:47;;;;;;;18.13;16.25;;;;;;;;;;4976575;28;20035;-84
2022/11/12 15:36:33;;;;;;;18.73;15.85;;;;;;;;;;4986539;28;20057;-84
2022/11/12 15:39:20;;;;;;;21.52;17.67;;;;;;;;;;4957749;29;20043;-85
2022/11/12 15:42:13;;;;;;;19.60;15.07;;;;;;;;;;4971151;28;20039;-84
2022/11/12 15:45:01;;;;;;;23.65;17.67;;;;;;;;;;4972452;28;20050;-84
2022/11/12 15:47:47;;;;;;;23.17;16.98;;;;;;;;;;4973503;28;20043;-85
2022/11/12 15:50:33;;;;;;;23.05;18.30;;;;;;;;;;4975528;28;20069;-85
2022/11/12 15:53:23;;;;;;;24.33;19.20;;;;;;;;;;4977248;28;20047;-84
2022/11/12 15:56:17;;;;;;;27.77;22.23;;;;;;;;;;4977037;28;20111;-85
2022/11/12 15:59:28;;;;;;;20.10;17.90;;;;;;;;;;4975454;28;20222;-87
2022/11/12 16:02:14;;;;;;;19.73;16.38;;;;;;;;;;5004646;23;20055;-76
2022/11/12 16:05:00;;;;;;;19.33;15.02;;;;;;;;;;4932863;29;20048;-74
2022/11/12 16:07:46;;;;;;;21.40;16.23;;;;;;;;;;4934273;29;20523;-74
2022/11/12 16:10:33;;;;;;;19.42;17.00;;;;;;;;;;4945609;28;20509;-74
2022/11/12 16:13:22;;;;;;;17.35;15.52;;;;;;;;;;4948701;29;20078;-75
2022/11/12 16:16:13;;;;;;;18.27;16.35;;;;;;;;;;4945103;28;20050;-74
2022/11/12 16:18:59;;;;;;;17.98;16.10;;;;;;;;;;4932351;29;20041;-75
2022/11/12 16:21:45;;;;;;;22.83;18.10;;;;;;;;;;4943805;28;20035;-75
2022/11/12 16:24:33;;;;;;;40.55;28.42;;;;;;;;;;4936639;29;20069;-75
2022/11/12 16:27:19;;;;;;;39.90;26.10;;;;;;;;;;4951415;29;20392;-75
2022/11/12 16:30:25;;;;;;;27.88;20.50;;;;;;;;;;4934727;29;20412;-75
2022/11/12 16:33:12;;;;;;;20.38;16.75;;;;;;;;;;4932476;29;20043;-74
2022/11/12 16:35:58;;;;;;;21.38;18.20;;;;;;;;;;4935580;29;20122;-75
2022/11/12 16:38:44;;;;;;;20.60;18.40;;;;;;;;;;4939015;29;20090;-76
2022/11/12 16:41:30;;;;;;;22.08;16.00;;;;;;;;;;4952055;28;20059;-75
2022/11/12 16:44:17;;;;;;;16.83;15.02;;;;;;;;;;4948788;28;20143;-75
2022/11/12 16:47:03;;;;;;;20.25;17.30;;;;;;;;;;4946184;28;20049;-75
2022/11/12 16:49:49;;;;;;;23.20;16.05;;;;;;;;;;4949314;28;20039;-75
2022/11/12 16:52:35;;;;;;;23.70;15.88;;;;;;;;;;4950348;29;20047;-76
2022/11/12 16:55:22;;;;;;;23.92;17.38;;;;;;;;;;4947579;28;20079;-75
2022/11/12 16:58:12;;;;;;;18.55;15.15;;;;;;;;;;4935669;28;20078;-76
2022/11/12 17:00:58;;;;;;;18.33;13.55;;;;;;;;;;4929194;28;20051;-75
2022/11/12 17:03:44;;;;;;;19.25;11.43;;;;;;;;;;4953187;28;20046;-76
2022/11/12 17:06:41;;;;;;;14.20;12.90;;;;;;;;;;4941096;29;20047;-76
2022/11/12 17:09:27;;;;;;;15.90;14.18;;;;;;;;;;4956525;28;20475;-76